LTAU/ASR METAR and TAF weather

Enter ICAO airport designator
Station Type Date Time Source
LTAU METAR 2021/05/15 01:50 UTC NOAA

LTAU 150150Z 06002KT CAVOK 08/04 Q1016 NOSIG


Station Type Date Time Source
LTAU Decoded METAR 2021/05/15 01:50 UTC NOAA

Kayseri / Erkilet, Turkey (LTAU) 38-47N 035-29E 1054M
May 14, 2021 - 09:50 PM EDT / 2021.05.15 0150 UTC
Wind: from the ENE (060 degrees) at 2 MPH (2 KT):0
Visibility: greater than 7 mile(s):0
Temperature: 46 F (8 C)
Dew Point: 39 F (4 C)
Relative Humidity: 75%
Pressure (altimeter): 30.00 in. Hg (1016 hPa)
ob: LTAU 150150Z 06002KT CAVOK 08/04 Q1016 NOSIG
cycle: 2

Station Type Date Time Source
LTAU TAF 2021/05/14 18:03 UTC NOAA

TAF LTAU 141640Z 1418/1518 VRB02KT CAVOK
BECMG 1511/1513 FEW040
TEMPO 1514/1518 26012KT
BECMG 1517/1518 CAVOK

Example: see airport list